sensor_id;sensor_type;location;lat;lon;timestamp;temperature;humidity
7232;DHT22;3657;49.630;11.018;2023-12-04T00:02:23;-4.80;99.90
7232;DHT22;3657;49.630;11.018;2023-12-04T00:04:50;-4.60;99.90
7232;DHT22;3657;49.630;11.018;2023-12-04T00:07:17;-4.70;99.90
7232;DHT22;3657;49.630;11.018;2023-12-04T00:09:44;-4.60;99.90
7232;DHT22;3657;49.630;11.018;2023-12-04T00:12:10;-4.60;99.90
7232;DHT22;3657;49.630;11.018;2023-12-04T00:14:38;-4.60;99.90
7232;DHT22;3657;49.630;11.018;2023-12-04T00:17:05;-4.60;99.90
7232;DHT22;3657;49.630;11.018;2023-12-04T00:19:32;-4.50;99.90
7232;DHT22;3657;49.630;11.018;2023-12-04T00:21:58;-4.70;99.90
7232;DHT22;3657;49.630;11.018;2023-12-04T00:24:25;-4.70;99.90
7232;DHT22;3657;49.630;11.018;2023-12-04T00:26:52;-4.70;99.90
7232;DHT22;3657;49.630;11.018;2023-12-04T00:29:18;-4.80;99.90
7232;DHT22;3657;49.630;11.018;2023-12-04T00:31:46;-4.80;99.90
7232;DHT22;3657;49.630;11.018;2023-12-04T00:34:13;-4.70;99.90
7232;DHT22;3657;49.630;11.018;2023-12-04T00:36:40;-4.70;99.90
7232;DHT22;3657;49.630;11.018;2023-12-04T00:39:06;-4.60;99.90
7232;DHT22;3657;49.630;11.018;2023-12-04T00:41:33;-4.40;99.90
7232;DHT22;3657;49.630;11.018;2023-12-04T00:44:00;-4.50;99.90
7232;DHT22;3657;49.630;11.018;2023-12-04T00:46:26;-4.40;99.90
7232;DHT22;3657;49.630;11.018;2023-12-04T00:48:54;-4.20;99.90
7232;DHT22;3657;49.630;11.018;2023-12-04T00:51:21;-4.00;99.90
7232;DHT22;3657;49.630;11.018;2023-12-04T00:53:48;-4.00;99.90
7232;DHT22;3657;49.630;11.018;2023-12-04T00:56:14;-4.10;99.90
7232;DHT22;3657;49.630;11.018;2023-12-04T00:58:41;-4.00;99.90
7232;DHT22;3657;49.630;11.018;2023-12-04T01:01:08;-4.20;99.90
7232;DHT22;3657;49.630;11.018;2023-12-04T01:03:35;-4.50;99.90
7232;DHT22;3657;49.630;11.018;2023-12-04T01:06:03;-4.40;99.90
7232;DHT22;3657;49.630;11.018;2023-12-04T01:08:30;-4.40;99.90
7232;DHT22;3657;49.630;11.018;2023-12-04T01:10:56;-4.60;99.90
7232;DHT22;3657;49.630;11.018;2023-12-04T01:13:23;-4.60;99.90
7232;DHT22;3657;49.630;11.018;2023-12-04T01:15:50;-4.60;99.90
7232;DHT22;3657;49.630;11.018;2023-12-04T01:18:16;-4.60;99.90
7232;DHT22;3657;49.630;11.018;2023-12-04T01:20:43;-4.40;99.90
7232;DHT22;3657;49.630;11.018;2023-12-04T01:23:11;-4.30;99.90
7232;DHT22;3657;49.630;11.018;2023-12-04T01:25:38;-4.60;99.90
7232;DHT22;3657;49.630;11.018;2023-12-04T01:28:05;-4.30;99.90
7232;DHT22;3657;49.630;11.018;2023-12-04T01:30:31;-4.40;99.90
7232;DHT22;3657;49.630;11.018;2023-12-04T01:32:58;-4.40;99.90
7232;DHT22;3657;49.630;11.018;2023-12-04T01:35:25;-4.20;99.90
7232;DHT22;3657;49.630;11.018;2023-12-04T01:37:52;-4.30;99.90
7232;DHT22;3657;49.630;11.018;2023-12-04T01:40:20;-4.50;99.90
7232;DHT22;3657;49.630;11.018;2023-12-04T01:42:46;-4.80;99.90
7232;DHT22;3657;49.630;11.018;2023-12-04T01:45:13;-5.00;99.90
7232;DHT22;3657;49.630;11.018;2023-12-04T01:47:40;-4.80;99.90
7232;DHT22;3657;49.630;11.018;2023-12-04T01:50:07;-4.80;99.90
7232;DHT22;3657;49.630;11.018;2023-12-04T01:52:35;-4.80;99.90
7232;DHT22;3657;49.630;11.018;2023-12-04T01:55:03;-4.80;99.90
7232;DHT22;3657;49.630;11.018;2023-12-04T01:57:32;-4.90;99.90
7232;DHT22;3657;49.630;11.018;2023-12-04T01:59:59;-4.90;99.90
7232;DHT22;3657;49.630;11.018;2023-12-04T02:02:26;-4.70;99.90
7232;DHT22;3657;49.630;11.018;2023-12-04T02:04:55;-4.80;99.90
7232;DHT22;3657;49.630;11.018;2023-12-04T02:07:22;-4.80;99.90
7232;DHT22;3657;49.630;11.018;2023-12-04T02:09:48;-4.90;99.90
7232;DHT22;3657;49.630;11.018;2023-12-04T02:12:15;-4.80;99.90
7232;DHT22;3657;49.630;11.018;2023-12-04T02:14:43;-4.70;99.90
7232;DHT22;3657;49.630;11.018;2023-12-04T02:17:11;-4.50;99.90
7232;DHT22;3657;49.630;11.018;2023-12-04T02:19:38;-4.60;99.90
7232;DHT22;3657;49.630;11.018;2023-12-04T02:22:05;-4.60;99.90
7232;DHT22;3657;49.630;11.018;2023-12-04T02:24:33;-4.80;99.90
7232;DHT22;3657;49.630;11.018;2023-12-04T02:27:10;-5.00;99.90
7232;DHT22;3657;49.630;11.018;2023-12-04T02:29:41;-4.70;99.90
7232;DHT22;3657;49.630;11.018;2023-12-04T02:32:11;-4.40;99.90
7232;DHT22;3657;49.630;11.018;2023-12-04T02:34:40;-4.20;99.90
7232;DHT22;3657;49.630;11.018;2023-12-04T02:37:08;-4.10;99.90
7232;DHT22;3657;49.630;11.018;2023-12-04T02:39:37;-4.20;99.90
7232;DHT22;3657;49.630;11.018;2023-12-04T02:42:04;-4.20;99.90
7232;DHT22;3657;49.630;11.018;2023-12-04T02:44:31;-4.40;99.90
7232;DHT22;3657;49.630;11.018;2023-12-04T02:46:57;-4.40;99.90
7232;DHT22;3657;49.630;11.018;2023-12-04T02:49:24;-4.40;99.90
7232;DHT22;3657;49.630;11.018;2023-12-04T02:51:51;-4.10;99.90
7232;DHT22;3657;49.630;11.018;2023-12-04T02:54:17;-4.00;99.90
7232;DHT22;3657;49.630;11.018;2023-12-04T02:56:45;-3.80;99.90
7232;DHT22;3657;49.630;11.018;2023-12-04T02:59:12;-3.80;99.90
7232;DHT22;3657;49.630;11.018;2023-12-04T03:01:39;-3.70;99.90
7232;DHT22;3657;49.630;11.018;2023-12-04T03:04:05;-3.60;99.90
7232;DHT22;3657;49.630;11.018;2023-12-04T03:06:32;-3.60;99.90
7232;DHT22;3657;49.630;11.018;2023-12-04T03:08:59;-3.40;99.90
7232;DHT22;3657;49.630;11.018;2023-12-04T03:11:26;-3.70;99.90
7232;DHT22;3657;49.630;11.018;2023-12-04T03:13:54;-3.90;99.90
7232;DHT22;3657;49.630;11.018;2023-12-04T03:16:21;-3.90;99.90
7232;DHT22;3657;49.630;11.018;2023-12-04T03:18:47;-3.80;99.90
7232;DHT22;3657;49.630;11.018;2023-12-04T03:21:14;-3.70;99.90
7232;DHT22;3657;49.630;11.018;2023-12-04T03:23:41;-3.80;99.90
7232;DHT22;3657;49.630;11.018;2023-12-04T03:26:08;-3.80;99.90
7232;DHT22;3657;49.630;11.018;2023-12-04T03:28:35;-3.80;99.90
7232;DHT22;3657;49.630;11.018;2023-12-04T03:31:03;-3.70;99.90
7232;DHT22;3657;49.630;11.018;2023-12-04T03:33:30;-3.60;99.90
7232;DHT22;3657;49.630;11.018;2023-12-04T03:35:58;-3.60;99.90
7232;DHT22;3657;49.630;11.018;2023-12-04T03:38:25;-3.50;99.90
7232;DHT22;3657;49.630;11.018;2023-12-04T03:40:52;-3.50;99.90
7232;DHT22;3657;49.630;11.018;2023-12-04T03:43:18;-3.50;99.90
7232;DHT22;3657;49.630;11.018;2023-12-04T03:45:45;-3.50;99.90
7232;DHT22;3657;49.630;11.018;2023-12-04T03:48:13;-3.50;99.90
7232;DHT22;3657;49.630;11.018;2023-12-04T03:50:40;-3.50;99.90
7232;DHT22;3657;49.630;11.018;2023-12-04T03:53:07;-3.50;99.90
7232;DHT22;3657;49.630;11.018;2023-12-04T03:55:33;-3.50;99.90
7232;DHT22;3657;49.630;11.018;2023-12-04T03:58:00;-3.50;99.90
7232;DHT22;3657;49.630;11.018;2023-12-04T04:00:27;-3.60;99.90
7232;DHT22;3657;49.630;11.018;2023-12-04T04:02:53;-3.60;99.90
7232;DHT22;3657;49.630;11.018;2023-12-04T04:05:21;-3.70;99.90
7232;DHT22;3657;49.630;11.018;2023-12-04T04:07:48;-3.60;99.90
7232;DHT22;3657;49.630;11.018;2023-12-04T04:10:15;-3.60;99.90
7232;DHT22;3657;49.630;11.018;2023-12-04T04:12:41;-3.60;99.90
7232;DHT22;3657;49.630;11.018;2023-12-04T04:15:09;-3.70;99.90
7232;DHT22;3657;49.630;11.018;2023-12-04T04:17:35;-3.70;99.90
7232;DHT22;3657;49.630;11.018;2023-12-04T04:20:03;-3.70;99.90
7232;DHT22;3657;49.630;11.018;2023-12-04T04:22:31;-3.70;99.90
7232;DHT22;3657;49.630;11.018;2023-12-04T04:25:00;-3.70;99.90
7232;DHT22;3657;49.630;11.018;2023-12-04T04:27:26;-3.80;99.90
7232;DHT22;3657;49.630;11.018;2023-12-04T04:29:53;-3.80;99.90
7232;DHT22;3657;49.630;11.018;2023-12-04T04:32:20;-3.80;99.90
7232;DHT22;3657;49.630;11.018;2023-12-04T04:34:46;-3.80;99.90
7232;DHT22;3657;49.630;11.018;2023-12-04T04:37:13;-3.80;99.90
7232;DHT22;3657;49.630;11.018;2023-12-04T04:39:41;-4.00;99.90
7232;DHT22;3657;49.630;11.018;2023-12-04T04:42:08;-4.00;99.90
7232;DHT22;3657;49.630;11.018;2023-12-04T04:44:34;-4.30;99.90
7232;DHT22;3657;49.630;11.018;2023-12-04T04:47:01;-4.50;99.90
7232;DHT22;3657;49.630;11.018;2023-12-04T04:49:28;-4.40;99.90
7232;DHT22;3657;49.630;11.018;2023-12-04T04:51:55;-4.60;99.90
7232;DHT22;3657;49.630;11.018;2023-12-04T04:54:21;-4.70;99.90
7232;DHT22;3657;49.630;11.018;2023-12-04T04:56:49;-4.70;99.90
7232;DHT22;3657;49.630;11.018;2023-12-04T04:59:16;-4.80;99.90
7232;DHT22;3657;49.630;11.018;2023-12-04T05:01:43;-4.90;99.90
7232;DHT22;3657;49.630;11.018;2023-12-04T05:04:09;-4.70;99.90
7232;DHT22;3657;49.630;11.018;2023-12-04T05:06:36;-4.60;99.90
7232;DHT22;3657;49.630;11.018;2023-12-04T05:09:03;-4.60;99.90
7232;DHT22;3657;49.630;11.018;2023-12-04T05:11:30;-4.70;99.90
7232;DHT22;3657;49.630;11.018;2023-12-04T05:13:58;-4.70;99.90
7232;DHT22;3657;49.630;11.018;2023-12-04T05:16:24;-4.80;99.90
7232;DHT22;3657;49.630;11.018;2023-12-04T05:18:51;-4.70;99.90
7232;DHT22;3657;49.630;11.018;2023-12-04T05:21:18;-4.80;99.90
7232;DHT22;3657;49.630;11.018;2023-12-04T05:23:44;-4.90;99.90
7232;DHT22;3657;49.630;11.018;2023-12-04T05:26:11;-4.90;99.90
7232;DHT22;3657;49.630;11.018;2023-12-04T05:28:38;-5.00;99.90
7232;DHT22;3657;49.630;11.018;2023-12-04T05:31:06;-4.80;99.90
7232;DHT22;3657;49.630;11.018;2023-12-04T05:33:33;-4.90;99.90
7232;DHT22;3657;49.630;11.018;2023-12-04T05:36:00;-5.00;99.90
7232;DHT22;3657;49.630;11.018;2023-12-04T05:38:26;-5.00;99.90
7232;DHT22;3657;49.630;11.018;2023-12-04T05:40:52;-5.00;99.90
7232;DHT22;3657;49.630;11.018;2023-12-04T05:43:20;-4.90;99.90
7232;DHT22;3657;49.630;11.018;2023-12-04T05:45:46;-4.90;99.90
7232;DHT22;3657;49.630;11.018;2023-12-04T05:48:14;-4.80;99.90
7232;DHT22;3657;49.630;11.018;2023-12-04T05:50:41;-4.60;99.90
7232;DHT22;3657;49.630;11.018;2023-12-04T05:53:11;-4.80;99.90
7232;DHT22;3657;49.630;11.018;2023-12-04T05:55:38;-4.80;99.90
7232;DHT22;3657;49.630;11.018;2023-12-04T05:58:04;-4.80;99.90
7232;DHT22;3657;49.630;11.018;2023-12-04T06:00:31;-4.60;99.90
7232;DHT22;3657;49.630;11.018;2023-12-04T06:02:58;-4.80;99.90
7232;DHT22;3657;49.630;11.018;2023-12-04T06:05:26;-4.90;99.90
7232;DHT22;3657;49.630;11.018;2023-12-04T06:07:52;-4.90;99.90
7232;DHT22;3657;49.630;11.018;2023-12-04T06:10:18;-4.80;99.90
7232;DHT22;3657;49.630;11.018;2023-12-04T06:12:45;-4.80;99.90
7232;DHT22;3657;49.630;11.018;2023-12-04T06:15:12;-4.70;99.90
7232;DHT22;3657;49.630;11.018;2023-12-04T06:17:39;-4.70;99.90
7232;DHT22;3657;49.630;11.018;2023-12-04T06:20:06;-4.80;99.90
7232;DHT22;3657;49.630;11.018;2023-12-04T06:22:35;-4.80;99.90
7232;DHT22;3657;49.630;11.018;2023-12-04T06:25:03;-4.70;99.90
7232;DHT22;3657;49.630;11.018;2023-12-04T06:27:31;-4.70;99.90
7232;DHT22;3657;49.630;11.018;2023-12-04T06:29:59;-4.60;99.90
7232;DHT22;3657;49.630;11.018;2023-12-04T06:32:26;-4.60;99.90
7232;DHT22;3657;49.630;11.018;2023-12-04T06:34:54;-4.50;99.90
7232;DHT22;3657;49.630;11.018;2023-12-04T06:37:22;-4.50;99.90
7232;DHT22;3657;49.630;11.018;2023-12-04T06:39:52;-4.80;99.90
7232;DHT22;3657;49.630;11.018;2023-12-04T06:42:19;-4.90;99.90
7232;DHT22;3657;49.630;11.018;2023-12-04T06:44:47;-4.90;99.90
7232;DHT22;3657;49.630;11.018;2023-12-04T06:47:19;-4.70;99.90
7232;DHT22;3657;49.630;11.018;2023-12-04T06:49:48;-4.60;99.90
7232;DHT22;3657;49.630;11.018;2023-12-04T06:52:15;-4.50;99.90
7232;DHT22;3657;49.630;11.018;2023-12-04T06:54:42;-4.50;99.90
7232;DHT22;3657;49.630;11.018;2023-12-04T06:57:10;-4.50;99.90
7232;DHT22;3657;49.630;11.018;2023-12-04T06:59:36;-4.50;99.90
7232;DHT22;3657;49.630;11.018;2023-12-04T07:02:03;-4.60;99.90
7232;DHT22;3657;49.630;11.018;2023-12-04T07:04:31;-4.60;99.90
7232;DHT22;3657;49.630;11.018;2023-12-04T07:06:57;-4.50;99.90
7232;DHT22;3657;49.630;11.018;2023-12-04T07:09:30;-4.50;99.90
7232;DHT22;3657;49.630;11.018;2023-12-04T07:11:56;-4.40;99.90
7232;DHT22;3657;49.630;11.018;2023-12-04T07:14:24;-4.50;99.90
7232;DHT22;3657;49.630;11.018;2023-12-04T07:16:51;-4.40;99.90
7232;DHT22;3657;49.630;11.018;2023-12-04T07:19:18;-4.40;99.90
7232;DHT22;3657;49.630;11.018;2023-12-04T07:21:45;-4.40;99.90
7232;DHT22;3657;49.630;11.018;2023-12-04T07:24:12;-4.40;99.90
7232;DHT22;3657;49.630;11.018;2023-12-04T07:26:38;-4.40;99.90
7232;DHT22;3657;49.630;11.018;2023-12-04T07:29:05;-4.40;99.90
7232;DHT22;3657;49.630;11.018;2023-12-04T07:31:34;-4.50;99.90
7232;DHT22;3657;49.630;11.018;2023-12-04T07:34:00;-4.50;99.90
7232;DHT22;3657;49.630;11.018;2023-12-04T07:36:27;-4.40;99.90
7232;DHT22;3657;49.630;11.018;2023-12-04T07:38:54;-4.40;99.90
7232;DHT22;3657;49.630;11.018;2023-12-04T07:41:21;-4.30;99.90
7232;DHT22;3657;49.630;11.018;2023-12-04T07:43:48;-4.20;99.90
7232;DHT22;3657;49.630;11.018;2023-12-04T07:46:15;-4.20;99.90
7232;DHT22;3657;49.630;11.018;2023-12-04T07:48:43;-4.10;99.90
7232;DHT22;3657;49.630;11.018;2023-12-04T07:51:11;-4.20;99.90
7232;DHT22;3657;49.630;11.018;2023-12-04T07:53:37;-4.20;99.90
7232;DHT22;3657;49.630;11.018;2023-12-04T07:56:05;-4.20;99.90
7232;DHT22;3657;49.630;11.018;2023-12-04T07:58:32;-4.10;99.90
7232;DHT22;3657;49.630;11.018;2023-12-04T08:00:59;-4.10;99.90
7232;DHT22;3657;49.630;11.018;2023-12-04T08:03:26;-4.10;99.90
7232;DHT22;3657;49.630;11.018;2023-12-04T08:05:54;-4.00;99.90
7232;DHT22;3657;49.630;11.018;2023-12-04T08:08:21;-4.00;99.90
7232;DHT22;3657;49.630;11.018;2023-12-04T08:10:48;-4.00;99.90
7232;DHT22;3657;49.630;11.018;2023-12-04T08:13:15;-4.00;99.90
7232;DHT22;3657;49.630;11.018;2023-12-04T08:15:41;-4.00;99.90
7232;DHT22;3657;49.630;11.018;2023-12-04T08:18:08;-4.00;99.90
7232;DHT22;3657;49.630;11.018;2023-12-04T08:20:35;-3.90;99.90
7232;DHT22;3657;49.630;11.018;2023-12-04T08:23:03;-3.90;99.90
7232;DHT22;3657;49.630;11.018;2023-12-04T08:25:31;-4.00;99.90
7232;DHT22;3657;49.630;11.018;2023-12-04T08:27:58;-3.90;99.90
7232;DHT22;3657;49.630;11.018;2023-12-04T08:30:25;-3.90;99.90
7232;DHT22;3657;49.630;11.018;2023-12-04T08:32:52;-3.90;99.90
7232;DHT22;3657;49.630;11.018;2023-12-04T08:35:19;-3.90;99.90
7232;DHT22;3657;49.630;11.018;2023-12-04T08:37:47;-3.80;99.90
7232;DHT22;3657;49.630;11.018;2023-12-04T08:40:15;-3.80;99.90
7232;DHT22;3657;49.630;11.018;2023-12-04T08:42:43;-3.70;99.90
7232;DHT22;3657;49.630;11.018;2023-12-04T08:45:10;-3.70;99.90
7232;DHT22;3657;49.630;11.018;2023-12-04T08:47:37;-3.60;99.90
7232;DHT22;3657;49.630;11.018;2023-12-04T08:50:04;-3.60;99.90
7232;DHT22;3657;49.630;11.018;2023-12-04T08:52:32;-3.60;99.90
7232;DHT22;3657;49.630;11.018;2023-12-04T08:54:59;-3.60;99.90
7232;DHT22;3657;49.630;11.018;2023-12-04T08:57:28;-3.60;99.90
7232;DHT22;3657;49.630;11.018;2023-12-04T08:59:55;-3.60;99.90
7232;DHT22;3657;49.630;11.018;2023-12-04T09:02:22;-3.50;99.90
7232;DHT22;3657;49.630;11.018;2023-12-04T09:04:49;-3.50;99.90
7232;DHT22;3657;49.630;11.018;2023-12-04T09:07:15;-3.40;99.90
7232;DHT22;3657;49.630;11.018;2023-12-04T09:09:42;-3.50;99.90
7232;DHT22;3657;49.630;11.018;2023-12-04T09:12:09;-3.40;99.90
7232;DHT22;3657;49.630;11.018;2023-12-04T09:14:37;-3.40;99.90
7232;DHT22;3657;49.630;11.018;2023-12-04T09:17:04;-3.40;99.90
7232;DHT22;3657;49.630;11.018;2023-12-04T09:19:31;-3.30;99.90
7232;DHT22;3657;49.630;11.018;2023-12-04T09:21:58;-3.30;99.90
7232;DHT22;3657;49.630;11.018;2023-12-04T09:24:24;-3.20;99.90
7232;DHT22;3657;49.630;11.018;2023-12-04T09:26:52;-3.20;99.90
7232;DHT22;3657;49.630;11.018;2023-12-04T09:29:20;-3.20;99.90
7232;DHT22;3657;49.630;11.018;2023-12-04T09:31:51;-3.10;99.90
7232;DHT22;3657;49.630;11.018;2023-12-04T09:34:17;-3.10;99.90
7232;DHT22;3657;49.630;11.018;2023-12-04T09:36:45;-3.00;99.90
7232;DHT22;3657;49.630;11.018;2023-12-04T09:39:12;-2.90;99.90
7232;DHT22;3657;49.630;11.018;2023-12-04T09:41:40;-2.90;99.90
7232;DHT22;3657;49.630;11.018;2023-12-04T09:44:08;-2.90;99.90
7232;DHT22;3657;49.630;11.018;2023-12-04T09:46:35;-2.90;99.90
7232;DHT22;3657;49.630;11.018;2023-12-04T09:49:04;-2.90;99.90
7232;DHT22;3657;49.630;11.018;2023-12-04T09:51:31;-2.90;99.90
7232;DHT22;3657;49.630;11.018;2023-12-04T09:54:00;-2.90;99.90
7232;DHT22;3657;49.630;11.018;2023-12-04T09:56:29;-2.80;99.90
7232;DHT22;3657;49.630;11.018;2023-12-04T09:58:58;-2.80;99.90
7232;DHT22;3657;49.630;11.018;2023-12-04T10:01:26;-2.80;99.90
7232;DHT22;3657;49.630;11.018;2023-12-04T10:03:55;-2.80;99.90
7232;DHT22;3657;49.630;11.018;2023-12-04T10:06:26;-2.80;99.90
7232;DHT22;3657;49.630;11.018;2023-12-04T10:08:54;-2.80;99.90
7232;DHT22;3657;49.630;11.018;2023-12-04T10:11:22;-2.70;99.90
7232;DHT22;3657;49.630;11.018;2023-12-04T10:13:49;-2.60;99.90
7232;DHT22;3657;49.630;11.018;2023-12-04T10:16:31;-2.50;99.90
7232;DHT22;3657;49.630;11.018;2023-12-04T10:19:14;-2.50;99.90
7232;DHT22;3657;49.630;11.018;2023-12-04T10:21:43;-2.40;99.90
7232;DHT22;3657;49.630;11.018;2023-12-04T10:24:10;-2.40;99.90
7232;DHT22;3657;49.630;11.018;2023-12-04T10:26:36;-2.30;99.90
7232;DHT22;3657;49.630;11.018;2023-12-04T10:29:04;-2.20;99.90
7232;DHT22;3657;49.630;11.018;2023-12-04T10:31:35;-2.20;99.90
7232;DHT22;3657;49.630;11.018;2023-12-04T10:34:02;-2.10;99.90
7232;DHT22;3657;49.630;11.018;2023-12-04T10:36:30;-2.00;99.90
7232;DHT22;3657;49.630;11.018;2023-12-04T10:39:01;-1.90;99.90
7232;DHT22;3657;49.630;11.018;2023-12-04T10:41:30;-1.90;99.90
7232;DHT22;3657;49.630;11.018;2023-12-04T10:43:57;-1.90;99.90
7232;DHT22;3657;49.630;11.018;2023-12-04T10:46:24;-2.00;99.90
7232;DHT22;3657;49.630;11.018;2023-12-04T10:48:51;-2.00;99.90
7232;DHT22;3657;49.630;11.018;2023-12-04T10:51:18;-2.00;99.90
7232;DHT22;3657;49.630;11.018;2023-12-04T10:53:47;-2.00;99.90
7232;DHT22;3657;49.630;11.018;2023-12-04T10:56:20;-2.10;99.90
7232;DHT22;3657;49.630;11.018;2023-12-04T10:58:53;-2.10;99.90
7232;DHT22;3657;49.630;11.018;2023-12-04T11:01:21;-2.00;99.90
7232;DHT22;3657;49.630;11.018;2023-12-04T11:03:52;-2.00;99.90
7232;DHT22;3657;49.630;11.018;2023-12-04T11:06:20;-2.00;99.90
7232;DHT22;3657;49.630;11.018;2023-12-04T11:08:49;-2.00;99.90
7232;DHT22;3657;49.630;11.018;2023-12-04T11:11:25;-1.90;99.90
7232;DHT22;3657;49.630;11.018;2023-12-04T11:13:55;-1.90;99.90
7232;DHT22;3657;49.630;11.018;2023-12-04T11:16:29;-1.90;99.90
7232;DHT22;3657;49.630;11.018;2023-12-04T11:19:01;-1.90;99.90
7232;DHT22;3657;49.630;11.018;2023-12-04T11:21:29;-1.90;99.90
7232;DHT22;3657;49.630;11.018;2023-12-04T11:23:57;-1.90;99.90
7232;DHT22;3657;49.630;11.018;2023-12-04T11:26:26;-1.90;99.90
7232;DHT22;3657;49.630;11.018;2023-12-04T11:28:53;-1.90;99.90
7232;DHT22;3657;49.630;11.018;2023-12-04T11:31:20;-1.90;99.90
7232;DHT22;3657;49.630;11.018;2023-12-04T11:33:47;-1.90;99.90
7232;DHT22;3657;49.630;11.018;2023-12-04T11:36:15;-1.90;99.90
7232;DHT22;3657;49.630;11.018;2023-12-04T11:38:44;-1.90;99.90
7232;DHT22;3657;49.630;11.018;2023-12-04T11:41:15;-1.90;99.90
7232;DHT22;3657;49.630;11.018;2023-12-04T11:43:45;-1.90;99.90
7232;DHT22;3657;49.630;11.018;2023-12-04T11:46:13;-1.90;99.90
7232;DHT22;3657;49.630;11.018;2023-12-04T11:48:40;-1.90;99.90
7232;DHT22;3657;49.630;11.018;2023-12-04T11:51:08;-2.00;99.90
7232;DHT22;3657;49.630;11.018;2023-12-04T11:53:37;-2.00;99.90
7232;DHT22;3657;49.630;11.018;2023-12-04T11:56:09;-2.00;99.90
7232;DHT22;3657;49.630;11.018;2023-12-04T11:58:43;-2.00;99.90
7232;DHT22;3657;49.630;11.018;2023-12-04T12:01:10;-2.00;99.90
7232;DHT22;3657;49.630;11.018;2023-12-04T12:03:37;-2.00;99.90
7232;DHT22;3657;49.630;11.018;2023-12-04T12:06:05;-2.00;99.90
7232;DHT22;3657;49.630;11.018;2023-12-04T12:08:32;-2.00;99.90
7232;DHT22;3657;49.630;11.018;2023-12-04T12:10:59;-2.00;99.90
7232;DHT22;3657;49.630;11.018;2023-12-04T12:13:26;-2.00;99.90
7232;DHT22;3657;49.630;11.018;2023-12-04T12:15:54;-2.00;99.90
7232;DHT22;3657;49.630;11.018;2023-12-04T12:18:24;-2.00;99.90
7232;DHT22;3657;49.630;11.018;2023-12-04T12:20:51;-2.00;99.90
7232;DHT22;3657;49.630;11.018;2023-12-04T12:23:17;-2.00;99.90
7232;DHT22;3657;49.630;11.018;2023-12-04T12:25:45;-2.00;99.90
7232;DHT22;3657;49.630;11.018;2023-12-04T12:28:13;-2.00;99.90
7232;DHT22;3657;49.630;11.018;2023-12-04T12:30:39;-2.00;99.90
7232;DHT22;3657;49.630;11.018;2023-12-04T12:33:09;-2.00;99.90
7232;DHT22;3657;49.630;11.018;2023-12-04T12:35:39;-1.90;99.90
7232;DHT22;3657;49.630;11.018;2023-12-04T12:38:05;-1.90;99.90
7232;DHT22;3657;49.630;11.018;2023-12-04T12:40:32;-1.90;99.90
7232;DHT22;3657;49.630;11.018;2023-12-04T12:43:05;-1.90;99.90
7232;DHT22;3657;49.630;11.018;2023-12-04T12:45:38;-1.90;99.90
7232;DHT22;3657;49.630;11.018;2023-12-04T12:48:05;-1.90;99.90
7232;DHT22;3657;49.630;11.018;2023-12-04T12:50:33;-1.90;99.90
7232;DHT22;3657;49.630;11.018;2023-12-04T12:53:01;-1.90;99.90
7232;DHT22;3657;49.630;11.018;2023-12-04T12:55:28;-1.80;99.90
7232;DHT22;3657;49.630;11.018;2023-12-04T12:57:55;-1.80;99.90
7232;DHT22;3657;49.630;11.018;2023-12-04T13:00:22;-1.80;99.90
7232;DHT22;3657;49.630;11.018;2023-12-04T13:02:52;-1.80;99.90
7232;DHT22;3657;49.630;11.018;2023-12-04T13:05:18;-1.80;99.90
7232;DHT22;3657;49.630;11.018;2023-12-04T13:07:47;-1.80;99.90
7232;DHT22;3657;49.630;11.018;2023-12-04T13:10:13;-1.80;99.90
7232;DHT22;3657;49.630;11.018;2023-12-04T13:12:40;-1.80;99.90
7232;DHT22;3657;49.630;11.018;2023-12-04T13:15:07;-1.80;99.90
7232;DHT22;3657;49.630;11.018;2023-12-04T13:17:36;-1.80;99.90
7232;DHT22;3657;49.630;11.018;2023-12-04T13:20:03;-1.80;99.90
7232;DHT22;3657;49.630;11.018;2023-12-04T13:22:30;-1.80;99.90
7232;DHT22;3657;49.630;11.018;2023-12-04T13:25:00;-1.80;99.90
7232;DHT22;3657;49.630;11.018;2023-12-04T13:27:27;-1.80;99.90
7232;DHT22;3657;49.630;11.018;2023-12-04T13:29:54;-1.80;99.90
7232;DHT22;3657;49.630;11.018;2023-12-04T13:32:21;-1.80;99.90
7232;DHT22;3657;49.630;11.018;2023-12-04T13:34:47;-1.80;99.90
7232;DHT22;3657;49.630;11.018;2023-12-04T13:37:14;-1.80;99.90
7232;DHT22;3657;49.630;11.018;2023-12-04T13:39:41;-1.70;99.90
7232;DHT22;3657;49.630;11.018;2023-12-04T13:42:15;-1.70;99.90
7232;DHT22;3657;49.630;11.018;2023-12-04T13:45:00;-1.70;99.90
7232;DHT22;3657;49.630;11.018;2023-12-04T13:47:26;-1.70;99.90
7232;DHT22;3657;49.630;11.018;2023-12-04T13:49:53;-1.70;99.90
7232;DHT22;3657;49.630;11.018;2023-12-04T13:52:21;-1.70;99.90
7232;DHT22;3657;49.630;11.018;2023-12-04T13:54:48;-1.80;99.90
7232;DHT22;3657;49.630;11.018;2023-12-04T13:57:18;-1.80;99.90
7232;DHT22;3657;49.630;11.018;2023-12-04T13:59:47;-1.80;99.90
7232;DHT22;3657;49.630;11.018;2023-12-04T14:02:14;-1.80;99.90
7232;DHT22;3657;49.630;11.018;2023-12-04T14:04:41;-1.80;99.90
7232;DHT22;3657;49.630;11.018;2023-12-04T14:07:07;-1.80;99.90
7232;DHT22;3657;49.630;11.018;2023-12-04T14:09:35;-1.80;99.90
7232;DHT22;3657;49.630;11.018;2023-12-04T14:12:02;-1.80;99.90
7232;DHT22;3657;49.630;11.018;2023-12-04T14:14:31;-1.80;99.90
7232;DHT22;3657;49.630;11.018;2023-12-04T14:17:00;-1.80;99.90
7232;DHT22;3657;49.630;11.018;2023-12-04T14:19:29;-1.70;99.90
7232;DHT22;3657;49.630;11.018;2023-12-04T14:21:56;-1.70;99.90
7232;DHT22;3657;49.630;11.018;2023-12-04T14:24:22;-1.70;99.90
7232;DHT22;3657;49.630;11.018;2023-12-04T14:26:49;-1.70;99.90
7232;DHT22;3657;49.630;11.018;2023-12-04T14:29:16;-1.70;99.90
7232;DHT22;3657;49.630;11.018;2023-12-04T14:31:44;-1.70;99.90
7232;DHT22;3657;49.630;11.018;2023-12-04T14:34:11;-1.80;99.90
7232;DHT22;3657;49.630;11.018;2023-12-04T14:36:38;-1.80;99.90
7232;DHT22;3657;49.630;11.018;2023-12-04T14:39:06;-1.80;99.90
7232;DHT22;3657;49.630;11.018;2023-12-04T14:41:32;-1.80;99.90
7232;DHT22;3657;49.630;11.018;2023-12-04T14:43:59;-1.80;99.90
7232;DHT22;3657;49.630;11.018;2023-12-04T14:46:26;-1.80;99.90
7232;DHT22;3657;49.630;11.018;2023-12-04T14:48:54;-1.90;99.90
7232;DHT22;3657;49.630;11.018;2023-12-04T14:51:21;-1.90;99.90
7232;DHT22;3657;49.630;11.018;2023-12-04T14:53:49;-1.90;99.90
7232;DHT22;3657;49.630;11.018;2023-12-04T14:56:26;-2.00;99.90
7232;DHT22;3657;49.630;11.018;2023-12-04T14:59:07;-2.00;99.90
7232;DHT22;3657;49.630;11.018;2023-12-04T15:02:07;-2.00;99.90
7232;DHT22;3657;49.630;11.018;2023-12-04T15:04:55;-2.00;99.90
7232;DHT22;3657;49.630;11.018;2023-12-04T15:07:39;-2.00;99.90
7232;DHT22;3657;49.630;11.018;2023-12-04T15:10:20;-2.00;99.90
7232;DHT22;3657;49.630;11.018;2023-12-04T15:13:29;-2.00;99.90
7232;DHT22;3657;49.630;11.018;2023-12-04T15:16:19;-2.00;99.90
7232;DHT22;3657;49.630;11.018;2023-12-04T15:18:56;-2.10;99.90
7232;DHT22;3657;49.630;11.018;2023-12-04T15:21:38;-2.10;99.90
7232;DHT22;3657;49.630;11.018;2023-12-04T15:24:06;-2.10;99.90
7232;DHT22;3657;49.630;11.018;2023-12-04T15:26:32;-2.10;99.90
7232;DHT22;3657;49.630;11.018;2023-12-04T15:28:59;-2.10;99.90
7232;DHT22;3657;49.630;11.018;2023-12-04T15:31:25;-2.10;99.90
7232;DHT22;3657;49.630;11.018;2023-12-04T15:33:52;-2.00;99.90
7232;DHT22;3657;49.630;11.018;2023-12-04T15:36:17;-2.00;99.90
7232;DHT22;3657;49.630;11.018;2023-12-04T15:38:48;-2.10;99.90
7232;DHT22;3657;49.630;11.018;2023-12-04T15:41:14;-2.00;99.90
7232;DHT22;3657;49.630;11.018;2023-12-04T15:43:42;-2.00;99.90
7232;DHT22;3657;49.630;11.018;2023-12-04T15:46:10;-2.10;99.90
7232;DHT22;3657;49.630;11.018;2023-12-04T15:48:36;-2.10;99.90
7232;DHT22;3657;49.630;11.018;2023-12-04T15:51:04;-2.10;99.90